createdAt,value
2023-05-18T00:02:48.676Z,9.40
2023-05-18T00:05:51.962Z,9.30
2023-05-18T00:08:55.378Z,9.20
2023-05-18T00:11:59.438Z,9.10
2023-05-18T00:15:02.820Z,9.00
2023-05-18T00:18:08.554Z,8.90
2023-05-18T00:21:12.315Z,8.90
2023-05-18T00:24:16.520Z,8.80
2023-05-18T00:27:19.721Z,8.70
2023-05-18T00:30:24.594Z,8.60
2023-05-18T00:33:29.193Z,8.50
2023-05-18T00:36:33.317Z,8.50
2023-05-18T00:39:36.521Z,8.40
2023-05-18T00:42:39.762Z,8.30
2023-05-18T00:45:43.051Z,8.20
2023-05-18T00:48:48.091Z,8.10
2023-05-18T00:51:53.458Z,8.00
2023-05-18T00:54:58.367Z,8.00
2023-05-18T00:58:02.258Z,7.90
2023-05-18T01:01:07.134Z,7.90
2023-05-18T01:04:14.319Z,7.90
2023-05-18T01:07:17.871Z,7.90
2023-05-18T01:10:21.503Z,7.90
2023-05-18T01:13:36.453Z,7.90
2023-05-18T01:16:44.732Z,8.00
2023-05-18T01:20:28.065Z,8.00
2023-05-18T01:24:00.220Z,7.90
2023-05-18T01:27:07.940Z,8.00
2023-05-18T01:30:12.225Z,7.90
2023-05-18T01:33:15.818Z,7.80
2023-05-18T01:36:19.362Z,7.70
2023-05-18T01:39:22.808Z,7.50
2023-05-18T01:42:31.188Z,7.50
2023-05-18T01:45:34.812Z,7.40
2023-05-18T01:48:40.107Z,7.40
2023-05-18T01:51:46.352Z,7.40
2023-05-18T01:54:53.909Z,7.40
2023-05-18T01:58:01.662Z,7.40
2023-05-18T02:01:05.918Z,7.40
2023-05-18T02:04:10.615Z,7.40
2023-05-18T02:07:14.216Z,7.40
2023-05-18T02:10:18.959Z,7.40
2023-05-18T02:13:25.784Z,7.40
2023-05-18T02:16:30.071Z,7.50
2023-05-18T02:19:38.013Z,7.40
2023-05-18T02:22:42.409Z,7.50
2023-05-18T02:25:50.336Z,7.40
2023-05-18T02:28:54.977Z,7.40
2023-05-18T02:32:01.884Z,7.40
2023-05-18T02:35:10.250Z,7.40
2023-05-18T02:38:13.626Z,7.30
2023-05-18T02:41:17.330Z,7.30
2023-05-18T02:44:22.089Z,7.20
2023-05-18T02:47:25.591Z,7.00
2023-05-18T02:50:28.875Z,7.00
2023-05-18T02:53:32.640Z,7.00
2023-05-18T02:56:42.653Z,6.90
2023-05-18T03:00:11.863Z,6.90
2023-05-18T03:03:16.728Z,6.80
2023-05-18T03:06:23.719Z,6.80
2023-05-18T03:09:27.120Z,6.70
2023-05-18T03:12:31.563Z,6.70
2023-05-18T03:15:38.158Z,6.70
2023-05-18T03:18:41.552Z,6.60
2023-05-18T03:21:44.880Z,6.60
2023-05-18T03:24:51.316Z,6.60
2023-05-18T03:27:55.938Z,6.50
2023-05-18T03:31:01.587Z,6.50
2023-05-18T03:34:05.222Z,6.50
2023-05-18T03:37:08.475Z,6.40
2023-05-18T03:40:14.646Z,6.30
2023-05-18T03:43:19.169Z,6.30
2023-05-18T03:46:25.282Z,6.20
2023-05-18T03:49:29.769Z,6.30
2023-05-18T03:52:34.211Z,6.30
2023-05-18T03:55:37.412Z,6.30
2023-05-18T03:58:42.389Z,6.30
2023-05-18T04:01:47.153Z,6.30
2023-05-18T04:04:53.997Z,6.40
2023-05-18T04:07:57.511Z,6.30
2023-05-18T04:11:01.517Z,6.40
2023-05-18T04:14:04.881Z,6.40
2023-05-18T04:17:10.169Z,6.40
2023-05-18T04:20:14.630Z,6.40
2023-05-18T04:23:18.539Z,6.40
2023-05-18T04:26:22.166Z,6.40
2023-05-18T04:29:27.998Z,6.50
2023-05-18T04:32:36.539Z,6.50
2023-05-18T04:35:39.988Z,6.50
2023-05-18T04:38:44.256Z,6.50
2023-05-18T04:41:48.506Z,6.50
2023-05-18T04:44:52.273Z,6.50
2023-05-18T04:48:06.719Z,6.50
2023-05-18T04:51:11.877Z,6.50
2023-05-18T04:54:16.131Z,6.60
2023-05-18T04:57:19.557Z,6.60
2023-05-18T05:00:24.117Z,6.50
2023-05-18T05:03:29.034Z,6.50
2023-05-18T05:06:32.581Z,6.50
2023-05-18T05:09:36.060Z,6.50
2023-05-18T05:12:40.286Z,6.50
2023-05-18T05:15:43.588Z,6.50
2023-05-18T05:18:48.296Z,6.50
2023-05-18T05:21:52.343Z,6.50
2023-05-18T05:24:55.638Z,6.50
2023-05-18T05:27:58.992Z,6.60
2023-05-18T05:31:02.280Z,6.50
2023-05-18T05:34:07.913Z,6.50
2023-05-18T05:37:11.527Z,6.60
2023-05-18T05:40:15.444Z,6.60
2023-05-18T05:43:21.403Z,6.60
2023-05-18T05:46:26.012Z,6.60
2023-05-18T05:49:31.490Z,6.60
2023-05-18T05:52:34.980Z,6.70
2023-05-18T05:55:41.845Z,6.60
2023-05-18T05:58:49.340Z,6.70
2023-05-18T06:01:52.842Z,6.70
2023-05-18T06:04:58.240Z,6.70
2023-05-18T06:08:01.497Z,6.80
2023-05-18T06:11:05.951Z,6.80
2023-05-18T06:14:09.289Z,6.80
2023-05-18T06:17:13.309Z,6.90
2023-05-18T06:20:18.181Z,7.00
2023-05-18T06:23:23.639Z,7.00
2023-05-18T06:26:38.753Z,7.00
2023-05-18T06:29:52.949Z,7.00
2023-05-18T06:33:14.692Z,7.00
2023-05-18T06:36:19.692Z,7.10
2023-05-18T06:39:23.135Z,7.10
2023-05-18T06:42:26.617Z,7.20
2023-05-18T06:45:39.221Z,7.20
2023-05-18T06:48:55.538Z,7.20
2023-05-18T06:52:00.196Z,7.20
2023-05-18T06:55:03.891Z,7.30
2023-05-18T06:58:07.602Z,7.20
2023-05-18T07:01:11.453Z,7.20
2023-05-18T07:04:16.078Z,7.30
2023-05-18T07:07:21.520Z,7.40
2023-05-18T07:10:25.687Z,7.50
2023-05-18T07:13:28.955Z,7.50
2023-05-18T07:16:32.308Z,7.50
2023-05-18T07:19:35.903Z,7.50
2023-05-18T07:22:40.554Z,7.50
2023-05-18T07:25:43.737Z,7.60
2023-05-18T07:28:47.782Z,7.60
2023-05-18T07:31:51.028Z,7.60
2023-05-18T07:34:54.348Z,7.60
2023-05-18T07:37:58.942Z,7.60
2023-05-18T07:41:02.225Z,7.70
2023-05-18T07:44:06.674Z,7.60
2023-05-18T07:47:10.237Z,7.60
2023-05-18T07:50:13.683Z,7.70
2023-05-18T07:53:18.610Z,7.60
2023-05-18T07:56:22.427Z,7.70
2023-05-18T07:59:26.042Z,7.80
2023-05-18T08:02:31.342Z,7.70
2023-05-18T08:05:36.423Z,7.90
2023-05-18T08:08:41.193Z,7.90
2023-05-18T08:11:45.088Z,7.90
2023-05-18T08:14:48.356Z,8.00
2023-05-18T08:17:52.256Z,8.20
2023-05-18T08:20:55.917Z,8.30
2023-05-18T08:24:00.575Z,8.30
2023-05-18T08:27:04.488Z,8.40
2023-05-18T08:30:08.790Z,8.30
2023-05-18T08:33:12.184Z,8.10
2023-05-18T08:36:15.738Z,8.20
2023-05-18T08:39:22.412Z,8.30
2023-05-18T08:42:41.654Z,8.50
2023-05-18T08:45:53.513Z,8.40
2023-05-18T08:48:58.618Z,8.40
2023-05-18T08:52:05.205Z,8.50
2023-05-18T08:55:12.458Z,8.30
2023-05-18T08:58:18.642Z,8.30
2023-05-18T09:01:22.970Z,8.30
2023-05-18T09:04:27.373Z,8.30
2023-05-18T09:07:30.863Z,8.20
2023-05-18T09:10:35.680Z,8.10
2023-05-18T09:13:39.708Z,8.10
2023-05-18T09:16:43.069Z,8.10
2023-05-18T09:19:46.303Z,8.30
2023-05-18T09:22:51.435Z,8.30
2023-05-18T09:25:56.447Z,8.20
2023-05-18T09:29:00.515Z,8.20
2023-05-18T09:32:09.591Z,8.20
2023-05-18T09:35:14.028Z,8.30
2023-05-18T09:38:21.922Z,8.40
2023-05-18T09:41:28.168Z,8.40
2023-05-18T09:44:33.429Z,8.40
2023-05-18T09:47:36.792Z,8.40
2023-05-18T09:50:40.334Z,8.40
2023-05-18T09:53:44.366Z,8.40
2023-05-18T09:57:05.933Z,8.50
2023-05-18T10:00:15.573Z,8.40
2023-05-18T10:03:20.753Z,8.40
2023-05-18T10:06:29.060Z,8.50
2023-05-18T10:09:32.794Z,8.40
2023-05-18T10:12:40.889Z,8.50
2023-05-18T10:15:49.500Z,8.50
2023-05-18T10:18:55.768Z,8.50
2023-05-18T10:22:00.247Z,8.60
2023-05-18T10:25:06.962Z,8.60
2023-05-18T10:28:12.621Z,8.60
2023-05-18T10:31:18.146Z,8.70
2023-05-18T10:34:24.568Z,8.60
2023-05-18T10:37:31.069Z,8.70
2023-05-18T10:40:35.686Z,8.80
2023-05-18T10:43:42.434Z,8.90
2023-05-18T10:46:45.946Z,8.90
2023-05-18T10:49:50.301Z,8.90
2023-05-18T10:52:54.346Z,9.00
2023-05-18T10:55:57.776Z,9.10
2023-05-18T10:59:02.609Z,9.10
2023-05-18T11:02:06.114Z,9.10
2023-05-18T11:05:10.830Z,9.10
2023-05-18T11:08:26.726Z,9.10
2023-05-18T11:11:31.061Z,9.20
2023-05-18T11:14:35.821Z,9.20
2023-05-18T11:17:39.168Z,9.30
2023-05-18T11:20:42.525Z,9.20
2023-05-18T11:24:07.499Z,9.30
2023-05-18T11:27:16.462Z,9.40
2023-05-18T11:30:30.051Z,9.50
2023-05-18T11:33:36.476Z,9.50
2023-05-18T11:36:46.424Z,9.50
2023-05-18T11:40:00.327Z,9.50
2023-05-18T11:43:04.578Z,9.50
2023-05-18T11:46:19.331Z,9.50
2023-05-18T11:49:24.998Z,9.60
2023-05-18T11:52:28.552Z,9.60
2023-05-18T11:55:39.416Z,9.60
2023-05-18T11:58:42.741Z,9.60
2023-05-18T12:01:47.550Z,9.50
2023-05-18T12:04:53.770Z,9.50
2023-05-18T12:07:57.627Z,9.50
2023-05-18T12:11:02.434Z,9.50
2023-05-18T12:14:07.082Z,9.50
2023-05-18T12:17:12.180Z,9.50
2023-05-18T12:20:16.980Z,9.60
2023-05-18T12:23:20.302Z,9.70
2023-05-18T12:26:25.919Z,9.70
2023-05-18T12:29:29.258Z,9.70
2023-05-18T12:32:35.168Z,9.70
2023-05-18T12:35:38.495Z,9.80
2023-05-18T12:38:42.071Z,9.80
2023-05-18T12:41:45.520Z,9.80
2023-05-18T12:44:50.766Z,9.80
2023-05-18T12:47:56.209Z,9.70
2023-05-18T12:50:59.735Z,9.70
2023-05-18T12:54:03.547Z,9.70
2023-05-18T12:57:10.006Z,9.70
2023-05-18T13:00:15.096Z,9.70
2023-05-18T13:03:22.678Z,9.80
2023-05-18T13:06:26.501Z,9.80
2023-05-18T13:09:29.825Z,9.80
2023-05-18T13:12:47.129Z,9.90
2023-05-18T13:15:52.613Z,9.90
2023-05-18T13:19:01.734Z,9.90
2023-05-18T13:22:05.309Z,9.90
2023-05-18T13:25:10.231Z,9.90
2023-05-18T13:28:15.912Z,9.90
2023-05-18T13:31:19.490Z,10.00
2023-05-18T13:34:24.684Z,10.10
2023-05-18T13:37:28.118Z,10.10
2023-05-18T13:40:31.460Z,10.10
2023-05-18T13:43:35.081Z,10.10
2023-05-18T13:46:38.544Z,10.20
2023-05-18T13:49:43.379Z,10.20
2023-05-18T13:52:47.473Z,10.20
2023-05-18T13:55:50.815Z,10.30
2023-05-18T13:58:54.203Z,10.30
2023-05-18T14:01:57.491Z,10.30
2023-05-18T14:05:03.813Z,10.30
2023-05-18T14:08:09.925Z,10.30
2023-05-18T14:11:13.277Z,10.30
2023-05-18T14:14:16.874Z,10.40
2023-05-18T14:17:20.480Z,10.40
2023-05-18T14:20:25.370Z,10.40
2023-05-18T14:23:28.685Z,10.40
2023-05-18T14:26:32.009Z,10.30
2023-05-18T14:29:36.138Z,10.30
2023-05-18T14:32:39.544Z,10.30
2023-05-18T14:35:44.226Z,10.20
2023-05-18T14:38:47.524Z,10.20
2023-05-18T14:41:50.943Z,10.30
2023-05-18T14:45:11.096Z,10.20
2023-05-18T14:48:27.711Z,10.20
2023-05-18T14:51:52.062Z,10.20
2023-05-18T14:55:19.695Z,10.20
2023-05-18T14:58:38.570Z,10.30
2023-05-18T15:02:11.959Z,10.20
2023-05-18T15:05:39.857Z,10.20
2023-05-18T15:08:52.877Z,10.20
2023-05-18T15:11:58.629Z,10.20
2023-05-18T15:15:02.070Z,10.30
2023-05-18T15:18:05.641Z,10.30
2023-05-18T15:21:10.618Z,10.30
2023-05-18T15:24:15.441Z,10.20
2023-05-18T15:27:19.342Z,10.20
2023-05-18T15:30:22.940Z,10.20
2023-05-18T15:33:26.212Z,10.20
2023-05-18T15:36:31.655Z,10.10
2023-05-18T15:39:38.704Z,10.10
2023-05-18T15:42:42.006Z,10.10
2023-05-18T15:45:45.330Z,10.10
2023-05-18T15:48:48.554Z,10.20
2023-05-18T15:51:51.825Z,10.30
2023-05-18T15:54:56.600Z,10.30
2023-05-18T15:57:59.816Z,10.30
2023-05-18T16:01:03.137Z,10.20
2023-05-18T16:04:06.572Z,10.30
2023-05-18T16:07:09.833Z,10.30
2023-05-18T16:10:15.013Z,10.20
2023-05-18T16:13:18.267Z,10.20
2023-05-18T16:16:21.859Z,10.20
2023-05-18T16:19:25.561Z,10.20
2023-05-18T16:22:29.161Z,10.20
2023-05-18T16:25:33.790Z,10.10
2023-05-18T16:28:37.214Z,10.10
2023-05-18T16:31:40.547Z,10.10
2023-05-18T16:34:43.861Z,10.10
2023-05-18T16:37:47.178Z,10.10
2023-05-18T16:40:51.881Z,10.10
2023-05-18T16:43:55.137Z,10.10
2023-05-18T16:46:58.585Z,10.00
2023-05-18T16:50:02.005Z,10.00
2023-05-18T16:53:05.799Z,10.00
2023-05-18T16:56:10.386Z,9.90
2023-05-18T16:59:14.210Z,10.00
2023-05-18T17:02:18.047Z,9.90
2023-05-18T17:05:23.118Z,9.90
2023-05-18T17:08:26.395Z,9.90
2023-05-18T17:11:31.375Z,9.90
2023-05-18T17:14:34.990Z,9.90
2023-05-18T17:17:39.503Z,9.90
2023-05-18T17:20:43.833Z,9.90
2023-05-18T17:23:47.283Z,9.90
2023-05-18T17:26:52.037Z,9.90
2023-05-18T17:29:55.368Z,9.90
2023-05-18T17:32:58.732Z,10.00
2023-05-18T17:36:02.165Z,9.90
2023-05-18T17:39:05.463Z,9.90
2023-05-18T17:42:10.370Z,9.90
2023-05-18T17:45:13.654Z,9.90
2023-05-18T17:48:17.045Z,9.80
2023-05-18T17:51:20.596Z,9.90
2023-05-18T17:54:24.025Z,9.80
2023-05-18T17:57:30.114Z,9.80
2023-05-18T18:00:34.348Z,9.80
2023-05-18T18:03:39.801Z,9.80
2023-05-18T18:06:45.483Z,9.80
2023-05-18T18:09:48.807Z,9.80
2023-05-18T18:12:53.473Z,9.80
2023-05-18T18:15:57.770Z,9.70
2023-05-18T18:19:02.845Z,9.80
2023-05-18T18:22:09.490Z,9.70
2023-05-18T18:25:12.872Z,9.70
2023-05-18T18:28:18.063Z,9.70
2023-05-18T18:31:21.427Z,9.70
2023-05-18T18:34:24.855Z,9.70
2023-05-18T18:37:28.406Z,9.70
2023-05-18T18:40:32.069Z,9.70
2023-05-18T18:43:39.880Z,9.70
2023-05-18T18:46:43.401Z,9.60
2023-05-18T18:49:46.743Z,9.60
2023-05-18T18:52:50.047Z,9.60
2023-05-18T18:55:53.393Z,9.60
2023-05-18T18:58:58.178Z,9.60
2023-05-18T19:02:01.502Z,9.50
2023-05-18T19:05:07.447Z,9.50
2023-05-18T19:08:10.819Z,9.50
2023-05-18T19:11:14.133Z,9.50
2023-05-18T19:14:19.174Z,9.50
2023-05-18T19:17:23.251Z,9.40
2023-05-18T19:20:26.649Z,9.40
2023-05-18T19:23:29.963Z,9.40
2023-05-18T19:26:33.462Z,9.30
2023-05-18T19:29:38.193Z,9.40
2023-05-18T19:32:41.752Z,9.30
2023-05-18T19:35:45.849Z,9.40
2023-05-18T19:38:52.400Z,9.30
2023-05-18T19:41:56.003Z,9.30
2023-05-18T19:45:00.919Z,9.30
2023-05-18T19:48:04.537Z,9.30
2023-05-18T19:51:08.263Z,9.30
2023-05-18T19:54:11.932Z,9.20
2023-05-18T19:57:15.175Z,9.20
2023-05-18T20:00:20.027Z,9.20
2023-05-18T20:03:23.417Z,9.20
2023-05-18T20:06:28.015Z,9.20
2023-05-18T20:09:31.590Z,9.20
2023-05-18T20:12:35.471Z,9.10
2023-05-18T20:15:40.500Z,9.10
2023-05-18T20:18:45.900Z,9.20
2023-05-18T20:21:49.889Z,9.10
2023-05-18T20:24:54.423Z,9.10
2023-05-18T20:28:00.702Z,9.00
2023-05-18T20:31:05.690Z,9.00
2023-05-18T20:34:14.279Z,9.00
2023-05-18T20:37:19.558Z,9.00
2023-05-18T20:40:23.884Z,9.00
2023-05-18T20:43:27.395Z,9.00
2023-05-18T20:46:33.874Z,9.00
2023-05-18T20:49:37.488Z,9.00
2023-05-18T20:52:40.966Z,9.00
2023-05-18T20:55:46.279Z,9.00
2023-05-18T20:58:50.169Z,9.00
2023-05-18T21:01:56.463Z,9.00
2023-05-18T21:05:00.281Z,8.90
2023-05-18T21:08:04.510Z,9.00
2023-05-18T21:11:08.083Z,8.90
2023-05-18T21:14:11.376Z,8.90
2023-05-18T21:17:16.236Z,8.90
2023-05-18T21:20:19.673Z,8.90
2023-05-18T21:23:23.161Z,8.90
2023-05-18T21:26:27.279Z,8.90
2023-05-18T21:29:30.623Z,8.90
2023-05-18T21:32:35.407Z,8.80
2023-05-18T21:35:38.819Z,8.90
2023-05-18T21:38:42.205Z,8.90
2023-05-18T21:41:45.397Z,8.80
2023-05-18T21:44:48.675Z,8.80
2023-05-18T21:47:53.299Z,8.80
2023-05-18T21:50:56.580Z,8.80
2023-05-18T21:54:00.080Z,8.80
2023-05-18T21:57:03.630Z,8.80
2023-05-18T22:00:08.772Z,8.80
2023-05-18T22:03:19.573Z,8.80
2023-05-18T22:06:23.525Z,8.80
2023-05-18T22:09:27.095Z,8.80
2023-05-18T22:12:30.555Z,8.90
2023-05-18T22:15:41.939Z,8.80
2023-05-18T22:18:46.868Z,8.90
2023-05-18T22:21:50.126Z,8.80
2023-05-18T22:24:53.547Z,8.90
2023-05-18T22:27:56.807Z,8.90
2023-05-18T22:31:00.132Z,8.90
2023-05-18T22:34:04.783Z,8.90
2023-05-18T22:37:07.963Z,8.90
2023-05-18T22:40:12.168Z,8.90
2023-05-18T22:43:15.367Z,8.90
2023-05-18T22:46:18.597Z,8.90
2023-05-18T22:49:23.262Z,8.90
2023-05-18T22:52:26.566Z,8.90
2023-05-18T22:55:30.023Z,8.90
2023-05-18T22:58:33.198Z,8.90
2023-05-18T23:01:37.689Z,8.90
2023-05-18T23:04:42.350Z,8.90
2023-05-18T23:07:45.712Z,8.90
2023-05-18T23:10:50.651Z,8.90
2023-05-18T23:13:53.881Z,8.90
2023-05-18T23:16:58.406Z,8.90
2023-05-18T23:20:05.885Z,8.90
2023-05-18T23:23:09.831Z,8.90
2023-05-18T23:26:13.052Z,8.90
2023-05-18T23:29:16.331Z,8.90
2023-05-18T23:32:19.559Z,8.90
2023-05-18T23:35:24.538Z,8.90
2023-05-18T23:38:34.969Z,8.90
2023-05-18T23:41:39.078Z,8.90
2023-05-18T23:44:42.918Z,8.90
2023-05-18T23:47:46.835Z,8.90
2023-05-18T23:50:52.752Z,8.90
2023-05-18T23:53:56.506Z,9.00
2023-05-18T23:57:00.181Z,8.90
